Time;durP1;ratioP1;P1;durP2;ratioP2;P2;SDS_P1;SDS_P2;PMS_P1;PMS_P2;Temp;Humidity;BMP_temperature;BMP_pressure;BME280_temperature;BME280_humidity;BME280_pressure;Samples;Min_cycle;Max_cycle;Signal;HPM_P1;HPM_P2
2023/08/09 03:59:23;;;;;;;7.35;5.82;;;15.70;99.90;;;16.14;80.94;100305.13;5171447;23;20050;-88
2023/08/09 04:01:51;;;;;;;7.47;6.15;;;15.80;99.90;;;16.15;81.04;100311.31;4979571;28;20043;-86
2023/08/09 04:04:18;;;;;;;8.15;6.72;;;15.70;99.90;;;16.14;81.03;100317.78;4969956;28;20094;-87
2023/08/09 04:06:46;;;;;;;8.98;6.95;;;15.70;99.90;;;16.15;81.01;100319.38;4987096;28;20039;-85
2023/08/09 04:09:13;;;;;;;15.85;7.97;;;15.70;99.90;;;16.14;80.97;100329.34;4969782;28;20058;-86
2023/08/09 04:11:41;;;;;;;16.80;9.27;;;15.70;99.90;;;16.13;80.87;100327.72;4967621;28;20066;-85
2023/08/09 04:14:08;;;;;;;15.27;9.13;;;15.70;99.90;;;16.12;80.75;100336.88;4972453;28;20098;-85
2023/08/09 04:16:37;;;;;;;15.38;8.98;;;15.70;99.90;;;16.10;80.92;100344.34;4973046;28;20054;-85
2023/08/09 04:19:05;;;;;;;14.20;9.68;;;15.70;99.90;;;16.08;80.82;100340.31;4966685;28;20043;-85
2023/08/09 04:21:33;;;;;;;16.70;9.25;;;15.70;99.90;;;16.06;81.08;100351.31;4970866;28;20863;-85
2023/08/09 04:24:00;;;;;;;19.50;10.20;;;15.70;99.90;;;16.06;81.25;100345.94;4991942;28;20431;-86
2023/08/09 04:26:28;;;;;;;16.70;10.95;;;15.70;99.90;;;16.05;80.92;100341.59;4981822;28;20073;-85
2023/08/09 04:28:55;;;;;;;20.23;12.82;;;15.70;99.90;;;16.04;80.72;100344.56;4978979;28;20043;-84
2023/08/09 04:31:22;;;;;;;24.85;14.45;;;15.70;99.90;;;16.04;80.76;100347.25;4983342;28;20070;-85
2023/08/09 04:33:52;;;;;;;32.45;14.90;;;15.60;99.90;;;16.04;80.55;100348.06;4974622;28;20066;-85
2023/08/09 04:36:20;;;;;;;26.17;15.13;;;15.60;99.90;;;16.03;80.54;100346.44;4972959;28;20043;-85
2023/08/09 04:38:47;;;;;;;26.27;15.40;;;15.70;99.90;;;16.02;80.77;100346.69;4980438;28;20780;-86
2023/08/09 04:41:16;;;;;;;27.70;15.20;;;15.60;99.90;;;16.03;80.67;100351.81;4975556;28;20105;-86
2023/08/09 04:43:44;;;;;;;23.15;13.80;;;15.60;99.90;;;16.02;80.72;100349.38;4994023;28;20039;-86
2023/08/09 04:46:13;;;;;;;25.85;14.32;;;15.60;99.90;;;16.00;80.98;100355.00;4988332;28;20141;-86
2023/08/09 04:48:42;;;;;;;28.33;14.38;;;15.60;99.90;;;15.97;80.63;100358.22;4971532;28;20385;-84
2023/08/09 04:51:11;;;;;;;24.33;13.30;;;15.60;99.90;;;15.96;80.90;100360.09;4990319;28;20432;-85
2023/08/09 04:53:38;;;;;;;22.38;14.32;;;15.60;99.90;;;15.98;80.71;100350.94;4972548;28;20042;-85
2023/08/09 04:56:06;;;;;;;26.88;14.90;;;15.60;99.90;;;15.98;80.69;100365.22;4972687;28;20047;-86
2023/08/09 04:58:33;;;;;;;29.55;15.27;;;15.60;99.90;;;16.01;80.72;100366.59;4967579;28;20738;-88
2023/08/09 05:01:01;;;;;;;32.85;16.30;;;15.60;99.90;;;15.95;80.26;100363.81;4987212;28;20071;-88
2023/08/09 05:03:28;;;;;;;26.17;14.95;;;15.60;99.90;;;15.93;80.19;100360.56;4970972;28;20550;-86
2023/08/09 05:05:55;;;;;;;23.48;14.30;;;15.60;99.90;;;15.91;80.07;100360.03;4967935;28;20074;-85
2023/08/09 05:08:24;;;;;;;27.15;14.55;;;15.60;99.90;;;15.92;79.81;100358.94;4967449;28;20118;-85
2023/08/09 05:10:52;;;;;;;24.13;13.65;;;15.60;99.90;;;15.95;79.83;100363.81;4962147;28;20145;-84
2023/08/09 05:13:19;;;;;;;24.23;11.95;;;15.60;99.90;;;16.00;79.60;100371.13;4988484;28;20050;-85
2023/08/09 05:15:46;;;;;;;22.13;11.93;;;15.60;99.90;;;16.00;79.40;100373.03;4972609;28;20133;-85
2023/08/09 05:18:14;;;;;;;19.55;11.80;;;15.60;99.90;;;16.00;79.17;100386.47;4968231;28;20086;-85
2023/08/09 05:20:41;;;;;;;22.33;13.07;;;15.60;99.90;;;15.96;79.14;100378.91;4965839;28;20046;-85
2023/08/09 05:23:08;;;;;;;21.05;11.68;;;15.50;99.90;;;15.98;79.37;100385.91;4972928;28;20093;-85
2023/08/09 05:25:37;;;;;;;21.27;12.73;;;15.60;99.90;;;15.99;79.54;100390.22;4972825;28;20113;-85
2023/08/09 05:28:06;;;;;;;25.15;13.00;;;15.60;99.90;;;16.00;79.48;100394.53;4961807;28;20122;-85
2023/08/09 05:30:33;;;;;;;25.50;12.88;;;15.60;99.90;;;16.01;79.64;100388.13;4972543;28;20121;-85
2023/08/09 05:33:00;;;;;;;26.92;13.90;;;15.60;99.90;;;16.03;80.01;100392.16;4975457;28;20105;-85
2023/08/09 05:35:28;;;;;;;29.00;14.07;;;15.60;99.90;;;16.06;79.87;100397.06;4976327;28;20397;-85
2023/08/09 05:37:55;;;;;;;28.70;14.35;;;15.70;99.90;;;16.09;79.80;100390.34;4998639;28;20049;-85
2023/08/09 05:40:22;;;;;;;32.47;14.93;;;15.70;99.90;;;16.12;79.79;100390.69;4975833;28;20067;-85
2023/08/09 05:42:51;;;;;;;40.22;16.20;;;15.70;99.90;;;16.20;80.18;100392.09;4972816;28;20422;-85
2023/08/09 05:45:19;;;;;;;35.15;16.88;;;15.80;99.90;;;16.35;80.15;100396.88;4976476;28;20038;-84
2023/08/09 05:47:46;;;;;;;37.80;17.60;;;16.00;99.90;;;16.48;80.66;100394.59;4974751;28;20051;-85
2023/08/09 05:50:15;;;;;;;38.22;18.17;;;16.20;99.90;;;16.61;80.13;100400.69;4979638;28;20778;-85
2023/08/09 05:52:42;;;;;;;36.47;17.40;;;16.30;99.90;;;16.59;80.08;100400.09;4971201;28;20038;-85
2023/08/09 05:55:10;;;;;;;39.03;18.00;;;16.40;99.90;;;16.56;80.01;100406.00;4971094;28;20138;-85
2023/08/09 05:57:37;;;;;;;42.92;19.60;;;16.30;99.90;;;16.53;80.17;100415.38;4966456;28;20031;-85
2023/08/09 06:00:15;;;;;;;45.53;21.95;;;16.20;99.90;;;16.55;80.32;100420.53;4973361;28;20042;-85
2023/08/09 06:02:43;;;;;;;47.75;21.15;;;16.30;99.90;;;16.63;81.25;100418.19;4975296;28;20406;-85
2023/08/09 06:05:17;;;;;;;52.08;23.42;;;16.40;99.90;;;16.61;81.15;100419.53;4991476;28;20038;-85
2023/08/09 06:07:45;;;;;;;54.70;23.90;;;16.40;99.90;;;16.57;81.39;100418.41;4972593;28;20034;-85
2023/08/09 06:10:12;;;;;;;46.63;22.80;;;16.40;99.90;;;16.55;81.18;100428.63;4989001;28;20043;-85
2023/08/09 06:12:40;;;;;;;52.72;23.60;;;16.40;99.90;;;16.54;81.14;100429.66;4993176;28;20042;-85
2023/08/09 06:15:11;;;;;;;49.05;22.77;;;16.30;99.90;;;16.52;81.73;100431.81;4979232;28;20035;-85
2023/08/09 06:17:38;;;;;;;45.88;22.40;;;16.30;99.90;;;16.51;81.57;100432.88;4990856;28;20043;-85
2023/08/09 06:20:08;;;;;;;49.65;23.98;;;16.30;99.90;;;16.50;82.09;100445.53;4973923;28;20070;-85
2023/08/09 06:22:35;;;;;;;49.05;23.70;;;16.30;99.90;;;16.51;82.43;100443.66;4999322;28;20565;-84
2023/08/09 06:25:03;;;;;;;51.92;24.80;;;16.30;99.90;;;16.50;81.80;100447.41;4978344;28;20066;-85
2023/08/09 06:27:30;;;;;;;48.08;23.45;;;16.30;99.90;;;16.46;81.64;100447.91;4978282;28;20046;-85
2023/08/09 06:29:58;;;;;;;52.42;25.48;;;16.20;99.90;;;16.48;81.87;100450.31;4990724;28;20090;-86
2023/08/09 06:32:26;;;;;;;46.03;22.48;;;16.20;99.90;;;16.48;81.61;100461.91;4974541;28;20670;-86
2023/08/09 06:34:54;;;;;;;47.75;23.55;;;16.30;99.90;;;16.50;82.07;100456.28;4974303;28;20138;-85
2023/08/09 06:37:21;;;;;;;55.03;23.65;;;16.30;99.90;;;16.55;82.37;100460.94;4973854;28;20038;-85
2023/08/09 06:39:48;;;;;;;44.58;23.35;;;16.30;99.90;;;16.60;82.48;100469.06;4974787;28;20500;-86
2023/08/09 06:42:16;;;;;;;44.97;23.30;;;16.40;99.90;;;16.67;82.80;100469.69;4974012;28;20801;-86
2023/08/09 06:44:47;;;;;;;46.40;24.05;;;16.50;99.90;;;16.68;83.00;100469.41;4990857;28;20051;-86
2023/08/09 06:47:14;;;;;;;46.38;23.10;;;16.50;99.90;;;16.66;82.78;100471.56;4972464;28;20500;-86
2023/08/09 06:49:43;;;;;;;44.63;23.25;;;16.50;99.90;;;16.64;82.34;100476.41;4972703;28;20141;-87
2023/08/09 06:52:10;;;;;;;41.85;23.23;;;16.40;99.90;;;16.69;82.00;100472.94;4989710;28;20105;-87
2023/08/09 06:54:37;;;;;;;40.83;22.70;;;16.50;99.90;;;16.92;82.18;100478.06;4981712;28;20129;-87
2023/08/09 06:57:05;;;;;;;40.72;23.02;;;16.80;99.90;;;17.08;82.62;100475.53;4972758;28;20774;-87
2023/08/09 06:59:32;;;;;;;41.97;23.77;;;17.00;99.90;;;17.09;80.91;100469.91;4972356;28;20388;-87
2023/08/09 07:02:00;;;;;;;39.83;22.77;;;17.00;99.90;;;17.11;81.32;100475.84;4982755;28;20039;-87
2023/08/09 07:04:27;;;;;;;37.75;23.42;;;17.00;99.90;;;17.12;81.84;100482.84;4964635;28;20126;-85
2023/08/09 07:06:56;;;;;;;42.00;22.80;;;17.00;99.90;;;17.07;81.51;100487.38;4972839;28;20050;-85
2023/08/09 07:09:23;;;;;;;36.00;21.20;;;17.00;99.90;;;16.99;81.76;100492.19;4970250;28;20484;-85
2023/08/09 07:11:50;;;;;;;29.63;19.25;;;16.90;99.90;;;16.96;81.69;100489.97;4966994;28;20047;-86
2023/08/09 07:14:18;;;;;;;32.35;18.83;;;16.80;99.90;;;16.92;81.80;100501.50;4990973;28;20043;-85
2023/08/09 07:16:45;;;;;;;34.20;19.45;;;16.80;99.90;;;16.89;81.51;100500.16;4974768;28;20126;-85
2023/08/09 07:19:12;;;;;;;33.80;19.27;;;16.70;99.90;;;16.88;81.39;100509.28;4990740;28;20047;-85
2023/08/09 07:21:39;;;;;;;27.15;17.85;;;16.70;99.90;;;16.97;82.11;100510.47;4974024;28;20133;-85
2023/08/09 07:24:08;;;;;;;29.77;18.35;;;16.80;99.90;;;17.18;82.24;100516.09;4964614;28;20062;-84
2023/08/09 07:26:36;;;;;;;25.35;17.77;;;17.00;99.90;;;17.29;81.37;100512.41;4970355;28;20562;-84
2023/08/09 07:29:03;;;;;;;24.50;15.77;;;17.20;99.90;;;17.41;80.24;100515.75;4973355;28;20045;-84
2023/08/09 07:31:30;;;;;;;24.85;16.73;;;17.40;99.90;;;17.45;80.11;100522.28;4976398;28;20050;-84
2023/08/09 07:33:58;;;;;;;26.63;16.25;;;17.40;99.90;;;17.36;79.50;100521.09;4974411;28;20047;-84
2023/08/09 07:36:25;;;;;;;20.92;15.75;;;17.30;99.90;;;17.43;79.34;100524.44;4973164;28;21881;-84
2023/08/09 07:38:52;;;;;;;23.85;16.35;;;17.40;99.90;;;17.57;81.55;100518.59;4988719;28;20727;-84
2023/08/09 07:41:21;;;;;;;21.27;15.93;;;17.50;99.90;;;17.61;79.12;100523.22;4977489;28;20038;-84
2023/08/09 07:43:49;;;;;;;22.88;15.35;;;17.60;99.90;;;17.73;77.61;100523.91;4972165;28;20134;-84
2023/08/09 07:46:16;;;;;;;20.83;14.57;;;17.70;99.90;;;17.81;78.82;100521.78;4991228;28;20128;-84
2023/08/09 07:48:43;;;;;;;20.73;13.77;;;17.80;99.90;;;17.88;77.52;100531.31;4974745;28;20039;-84
2023/08/09 07:51:11;;;;;;;20.10;13.93;;;17.90;99.90;;;17.92;77.73;100531.63;4977434;28;20058;-84
2023/08/09 07:53:39;;;;;;;19.30;13.27;;;18.00;99.90;;;17.98;78.48;100527.88;4967765;28;20050;-85
2023/08/09 07:56:06;;;;;;;18.45;13.50;;;18.10;99.90;;;18.04;77.24;100531.44;4983236;28;20049;-85
2023/08/09 07:58:35;;;;;;;20.35;13.32;;;18.20;99.90;;;18.09;76.13;100536.84;4976889;28;20500;-85
2023/08/09 08:01:04;;;;;;;17.70;13.63;;;18.20;99.90;;;18.13;74.92;100537.97;4957277;28;20106;-85
2023/08/09 08:03:31;;;;;;;20.85;14.95;;;18.30;99.90;;;18.19;74.54;100542.31;4979149;28;20582;-85
2023/08/09 08:05:59;;;;;;;24.08;15.60;;;18.30;99.90;;;18.23;74.00;100555.03;4975063;28;20043;-85
2023/08/09 08:08:27;;;;;;;22.70;15.93;;;18.30;99.90;;;18.16;74.97;100551.78;4974432;28;20097;-84
2023/08/09 08:10:54;;;;;;;20.33;14.77;;;18.20;99.90;;;18.00;74.67;100552.72;4974506;28;20146;-84
2023/08/09 08:13:23;;;;;;;26.15;16.30;;;18.00;99.90;;;17.91;74.67;100556.94;4971833;28;20070;-84
2023/08/09 08:15:52;;;;;;;24.20;15.65;;;17.90;99.90;;;17.89;75.50;100562.63;4958203;28;20042;-84
2023/08/09 08:18:19;;;;;;;19.23;14.07;;;17.90;99.90;;;17.86;74.23;100565.84;4973267;28;20047;-85
2023/08/09 08:20:46;;;;;;;23.80;14.40;;;17.80;99.90;;;17.85;73.14;100564.19;4990181;28;20086;-85
2023/08/09 08:23:14;;;;;;;22.58;12.77;;;17.80;99.90;;;17.92;73.62;100564.81;4975395;28;20426;-85
2023/08/09 08:25:41;;;;;;;18.80;13.35;;;17.80;99.90;;;18.06;73.19;100567.09;4975953;28;20146;-84
2023/08/09 08:28:08;;;;;;;18.88;13.48;;;18.00;99.90;;;18.16;73.68;100577.97;4974127;28;20042;-85
2023/08/09 08:30:36;;;;;;;18.75;13.90;;;18.20;99.90;;;18.25;73.68;100574.50;4974312;28;20195;-85
2023/08/09 08:33:05;;;;;;;20.42;13.50;;;18.30;99.90;;;18.31;74.30;100564.56;4967258;28;20046;-85
2023/08/09 08:35:36;;;;;;;17.35;13.50;;;18.40;99.90;;;18.32;73.81;100570.78;4974392;28;20409;-85
2023/08/09 08:38:04;;;;;;;20.80;13.57;;;18.40;99.90;;;18.27;73.98;100568.84;4973824;28;20046;-85
2023/08/09 08:40:33;;;;;;;18.65;12.82;;;18.30;99.90;;;18.28;73.50;100563.19;4974252;28;20043;-85
2023/08/09 08:43:00;;;;;;;14.32;11.23;;;18.30;99.90;;;18.34;71.89;100560.50;4974292;28;20562;-84
2023/08/09 08:45:28;;;;;;;14.40;11.38;;;18.40;99.90;;;18.40;72.23;100564.88;4973994;28;20042;-85
2023/08/09 08:47:55;;;;;;;18.65;11.50;;;18.50;99.90;;;18.30;70.49;100562.94;4973968;28;20074;-85
2023/08/09 08:50:25;;;;;;;15.60;10.80;;;18.40;99.90;;;18.25;69.53;100560.19;4972903;28;20537;-85
2023/08/09 08:52:53;;;;;;;15.38;11.00;;;18.30;99.90;;;18.23;70.91;100560.44;4971077;28;20059;-84
2023/08/09 08:55:21;;;;;;;14.35;10.80;;;18.30;99.90;;;18.23;71.51;100567.72;4975549;28;20070;-84
2023/08/09 08:57:48;;;;;;;17.42;11.57;;;18.20;99.90;;;18.15;72.70;100571.72;4974541;28;20043;-84
2023/08/09 09:00:18;;;;;;;15.90;10.85;;;18.20;99.90;;;18.17;72.55;100576.88;4974024;28;20047;-84
2023/08/09 09:02:46;;;;;;;15.63;10.48;;;18.20;99.90;;;18.25;71.71;100573.69;5005462;28;20046;-84
2023/08/09 09:05:14;;;;;;;14.05;9.63;;;18.30;99.90;;;18.26;74.24;100578.84;4974817;28;20110;-85
2023/08/09 09:07:50;;;;;;;12.85;9.45;;;18.30;99.90;;;18.27;73.16;100579.66;4984068;28;20070;-84
2023/08/09 09:10:19;;;;;;;17.65;9.65;;;18.30;99.90;;;18.27;73.63;100587.75;4996545;28;20116;-85
2023/08/09 09:12:46;;;;;;;14.23;9.13;;;18.30;99.90;;;18.33;71.95;100585.88;4981517;28;20035;-85
2023/08/09 09:15:14;;;;;;;13.88;8.30;;;18.40;99.90;;;18.41;71.92;100588.13;4975838;28;20137;-85
2023/08/09 09:17:44;;;;;;;13.63;8.20;;;18.60;99.90;;;18.52;70.53;100593.31;5004960;28;20042;-84
2023/08/09 09:20:20;;;;;;;12.73;7.93;;;18.80;99.90;;;18.59;71.32;100586.84;4979126;28;20145;-84
2023/08/09 09:22:49;;;;;;;15.45;8.80;;;18.80;99.90;;;18.71;72.79;100593.72;4972401;28;20074;-84
2023/08/09 09:25:18;;;;;;;12.57;8.13;;;19.00;99.90;;;18.63;69.42;100588.78;4977317;28;20038;-84
2023/08/09 09:27:49;;;;;;;13.38;8.18;;;18.90;99.90;;;18.51;71.35;100596.28;4976711;28;20042;-84
2023/08/09 09:30:19;;;;;;;16.92;8.43;;;18.70;99.90;;;18.47;71.44;100593.28;4975135;28;20074;-82
2023/08/09 09:32:58;;;;;;;14.20;8.32;;;18.70;99.90;;;18.56;73.81;100596.31;4989706;28;20055;-83
2023/08/09 09:35:28;;;;;;;10.38;6.78;;;18.80;99.90;;;18.56;69.51;100588.22;4974272;28;20093;-82
2023/08/09 09:38:00;;;;;;;10.98;6.55;;;18.80;99.90;;;18.57;70.65;100591.72;4966353;28;20074;-82
2023/08/09 09:40:31;;;;;;;10.77;6.38;;;18.80;99.90;;;18.53;67.18;100599.53;4973215;28;20059;-82
2023/08/09 09:43:01;;;;;;;10.77;6.93;;;18.80;99.90;;;18.58;68.13;100604.16;4973603;28;20050;-83
2023/08/09 09:45:30;;;;;;;14.15;6.93;;;18.80;99.90;;;18.62;69.27;100606.06;4971171;28;20046;-83
2023/08/09 09:48:00;;;;;;;12.40;6.30;;;18.90;99.90;;;18.65;67.11;100610.16;4969175;28;20082;-82
2023/08/09 09:50:31;;;;;;;12.23;6.75;;;18.90;99.90;;;18.62;66.61;100607.97;4972241;28;20039;-83
2023/08/09 09:53:02;;;;;;;9.48;7.20;;;18.80;99.90;;;18.63;66.37;100614.97;4983294;28;20060;-83
2023/08/09 09:55:30;;;;;;;11.88;7.70;;;18.80;99.90;;;18.59;67.57;100616.56;4976293;28;20039;-83
2023/08/09 09:57:59;;;;;;;12.32;8.55;;;18.80;99.90;;;18.60;68.30;100616.34;4972154;28;20042;-83
2023/08/09 10:00:28;;;;;;;12.10;8.88;;;18.80;99.90;;;18.66;70.86;100619.88;4973402;28;20109;-83
2023/08/09 10:02:58;;;;;;;14.55;9.73;;;18.90;99.90;;;18.74;70.09;100627.53;4973886;28;20077;-83
2023/08/09 10:05:35;;;;;;;14.07;10.88;;;19.00;99.90;;;18.66;65.21;100627.97;4988891;28;20460;-83
2023/08/09 10:08:06;;;;;;;17.70;10.77;;;18.90;99.90;;;18.63;68.04;100633.88;4968216;28;20093;-83
2023/08/09 10:10:36;;;;;;;22.67;12.85;;;18.90;99.90;;;18.62;67.63;100640.38;4992586;28;20154;-83
2023/08/09 10:13:07;;;;;;;16.85;10.70;;;18.90;99.90;;;18.62;67.53;100638.47;4980385;28;20134;-82
2023/08/09 10:15:39;;;;;;;14.32;9.55;;;18.90;99.90;;;18.66;66.11;100638.78;4973315;28;20109;-82
2023/08/09 10:18:13;;;;;;;16.02;10.27;;;18.90;99.90;;;18.68;66.40;100637.47;4976214;28;20034;-82
2023/08/09 10:20:47;;;;;;;14.90;9.52;;;18.90;99.90;;;18.64;64.11;100638.22;4975580;28;20548;-82
2023/08/09 10:26:28;;;;;;;16.30;11.00;;;18.80;99.90;;;18.66;66.53;100638.78;4954783;28;20385;-86
2023/08/09 10:29:05;;;;;;;15.23;11.52;;;18.90;99.90;;;18.65;66.99;100642.56;4954311;28;20149;-87
2023/08/09 10:31:53;;;;;;;15.85;10.77;;;18.80;99.90;;;18.66;66.26;100644.19;4960140;28;20746;-87
2023/08/09 10:34:21;;;;;;;20.30;11.52;;;18.80;99.90;;;18.59;63.66;100636.28;4949522;29;20485;-87
2023/08/09 10:36:58;;;;;;;17.73;9.82;;;18.80;99.20;;;18.60;64.97;100646.06;4958135;28;20040;-87
2023/08/09 10:39:26;;;;;;;15.65;10.65;;;18.80;99.90;;;18.63;65.16;100639.28;4965726;28;20039;-86
2023/08/09 10:42:01;;;;;;;16.98;11.45;;;18.80;99.90;;;18.68;67.10;100642.03;4956204;28;20050;-86
2023/08/09 10:44:41;;;;;;;15.27;10.57;;;18.80;99.90;;;18.70;66.84;100646.16;4961349;28;20062;-86
2023/08/09 10:47:12;;;;;;;19.70;12.82;;;18.90;99.90;;;18.71;64.69;100641.56;4955073;29;20082;-86
2023/08/09 10:50:00;;;;;;;18.27;13.18;;;18.90;99.90;;;18.69;65.00;100643.69;4953180;28;20051;-86
2023/08/09 10:52:34;;;;;;;19.85;11.98;;;18.80;99.90;;;18.68;63.97;100648.28;4974426;28;20478;-86
2023/08/09 10:55:29;;;;;;;20.58;11.80;;;18.90;99.40;;;18.67;62.67;100638.50;4954185;28;20051;-87
2023/08/09 10:58:01;;;;;;;19.88;12.18;;;18.90;98.30;;;18.71;64.77;100638.84;4954403;28;20506;-86
2023/08/09 11:00:39;;;;;;;19.95;12.93;;;18.90;99.90;;;18.75;64.81;100643.47;4954715;28;20496;-86
2023/08/09 11:03:07;;;;;;;19.55;13.13;;;18.90;99.90;;;18.78;64.96;100640.22;4955253;28;20048;-86
2023/08/09 11:05:34;;;;;;;19.42;12.40;;;18.90;99.90;;;18.69;61.91;100636.41;4970060;28;20043;-86
2023/08/09 11:08:11;;;;;;;21.25;12.60;;;18.90;97.00;;;18.79;65.57;100632.97;4954098;28;20058;-86
2023/08/09 11:10:41;;;;;;;20.50;13.60;;;18.90;99.90;;;18.83;66.33;100638.63;4966848;28;20071;-86
2023/08/09 11:13:13;;;;;;;18.17;13.02;;;19.00;99.90;;;18.86;67.38;100654.34;4960880;28;20070;-86
2023/08/09 11:15:45;;;;;;;20.75;12.35;;;19.00;99.90;;;18.83;65.25;100647.56;4971047;28;20043;-87
2023/08/09 11:18:12;;;;;;;21.33;11.98;;;19.00;99.90;;;18.85;65.22;100653.53;4966921;28;20154;-87
2023/08/09 11:20:40;;;;;;;23.30;12.63;;;19.00;99.90;;;18.85;64.62;100650.00;4970397;28;20042;-88
2023/08/09 11:23:08;;;;;;;20.27;11.60;;;19.00;99.70;;;18.84;65.34;100654.59;4974355;28;20068;-88
2023/08/09 11:25:36;;;;;;;17.77;11.98;;;19.00;99.90;;;18.88;66.26;100652.97;4974422;28;20043;-88
2023/08/09 11:28:06;;;;;;;15.80;10.90;;;19.00;99.90;;;18.87;66.07;100661.38;4968214;28;20082;-88
2023/08/09 11:30:35;;;;;;;16.08;11.10;;;19.00;99.90;;;18.89;67.02;100657.34;4972324;28;20055;-89
2023/08/09 11:33:06;;;;;;;14.30;10.40;;;19.00;99.90;;;18.92;65.80;100662.19;4954645;28;20050;-89
2023/08/09 11:35:39;;;;;;;14.75;10.68;;;19.00;99.90;;;18.93;66.68;100666.53;4970844;28;20508;-89
2023/08/09 11:38:09;;;;;;;15.70;10.45;;;19.00;99.90;;;18.89;65.30;100670.03;4969834;28;20043;-89
2023/08/09 11:40:42;;;;;;;21.55;10.27;;;19.00;99.90;;;18.87;63.41;100664.88;4961710;28;20063;-88
2023/08/09 11:43:16;;;;;;;15.60;10.05;;;19.00;98.40;;;18.89;66.04;100661.94;4954910;28;20063;-89
2023/08/09 11:45:53;;;;;;;12.27;9.60;;;19.00;99.90;;;18.91;65.36;100657.88;4963509;28;20051;-89
2023/08/09 11:48:32;;;;;;;20.98;11.02;;;19.00;99.90;;;18.97;66.63;100658.72;4974513;28;20447;-89
2023/08/09 11:51:03;;;;;;;13.05;9.05;;;19.10;99.90;;;18.97;64.39;100661.41;4948643;29;20106;-89
2023/08/09 11:53:32;;;;;;;15.30;9.40;;;19.10;99.30;;;19.00;65.83;100661.72;4953049;28;20054;-89
2023/08/09 11:56:01;;;;;;;14.05;9.10;;;19.10;99.90;;;19.02;64.39;100670.38;4954636;28;20047;-89
2023/08/09 11:58:28;;;;;;;14.23;8.60;;;19.20;99.30;;;19.05;65.25;100671.75;4951638;28;20420;-89
2023/08/09 12:00:58;;;;;;;14.40;7.82;;;19.20;99.90;;;19.08;65.23;100673.09;4951787;29;20047;-89
2023/08/09 12:03:25;;;;;;;11.48;7.43;;;19.20;99.90;;;19.11;64.51;100680.69;4963878;28;20047;-89
2023/08/09 12:05:54;;;;;;;10.18;7.10;;;19.30;99.50;;;19.13;63.01;100678.53;4963316;28;20122;-89
2023/08/09 12:08:37;;;;;;;12.93;6.22;;;19.30;98.10;;;19.14;62.82;100685.59;4953009;28;20043;-88
2023/08/09 12:11:05;;;;;;;11.18;5.75;;;19.30;98.00;;;19.15;62.74;100679.09;4953508;28;20680;-88
2023/08/09 12:13:34;;;;;;;13.45;6.20;;;19.30;97.40;;;19.18;63.27;100687.50;4967617;28;20051;-85
2023/08/09 12:16:06;;;;;;;10.63;6.35;;;19.40;97.80;;;19.20;63.38;100688.03;4962074;28;20039;-87
2023/08/09 12:18:36;;;;;;;10.10;5.20;;;19.40;98.20;;;19.23;62.36;100681.31;4960730;28;20031;-85
2023/08/09 12:21:06;;;;;;;10.18;3.28;;;19.40;96.70;;;19.24;59.08;100688.34;4963684;28;20057;-86
2023/08/09 12:23:36;;;;;;;12.90;3.90;;;19.50;93.50;;;19.20;58.89;100698.03;4978110;28;20057;-86
2023/08/09 12:26:04;;;;;;;11.13;3.88;;;19.40;93.00;;;19.26;64.21;100691.56;4954700;28;20122;-87
2023/08/09 12:28:31;;;;;;;8.55;3.55;;;19.50;98.50;;;19.28;62.71;100692.97;4968931;28;20059;-86
2023/08/09 12:31:00;;;;;;;7.63;3.63;;;19.50;96.80;;;19.26;62.31;100689.69;4957995;28;20046;-86
2023/08/09 12:33:28;;;;;;;7.03;3.40;;;19.50;96.40;;;19.29;61.53;100686.47;4955664;28;20051;-86
2023/08/09 12:35:56;;;;;;;8.35;3.25;;;19.50;95.40;;;19.34;63.68;100687.56;4970564;28;20102;-87
2023/08/09 12:38:24;;;;;;;7.07;3.20;;;19.50;97.90;;;19.36;63.08;100688.91;4969021;28;20075;-86
2023/08/09 12:40:51;;;;;;;6.88;2.97;;;19.60;97.00;;;19.37;65.13;100693.25;4960978;28;20039;-87
2023/08/09 12:43:18;;;;;;;7.03;2.83;;;19.60;99.30;;;19.40;62.90;100691.91;4952776;29;20102;-87
2023/08/09 12:45:46;;;;;;;4.50;2.10;;;19.60;97.00;;;19.42;60.74;100687.03;4958070;28;20139;-86
2023/08/09 12:48:14;;;;;;;7.90;2.20;;;19.70;95.10;;;19.41;59.07;100693.53;4953367;28;20588;-86
2023/08/09 12:50:42;;;;;;;5.35;2.00;;;19.70;92.80;;;19.42;59.68;100693.28;4951211;28;20047;-86
2023/08/09 12:53:10;;;;;;;5.45;2.00;;;19.70;93.40;;;19.45;59.74;100695.44;4961514;28;20464;-86
2023/08/09 12:55:37;;;;;;;5.05;2.00;;;19.70;93.40;;;19.50;59.48;100694.66;4936129;28;20039;-87
2023/08/09 12:58:05;;;;;;;4.32;1.98;;;19.70;92.80;;;19.52;59.91;100687.91;4969573;28;20102;-89
2023/08/09 13:00:32;;;;;;;4.75;2.00;;;19.70;93.70;;;19.54;60.99;100693.06;4952629;28;20090;-88
2023/08/09 13:03:00;;;;;;;5.70;2.30;;;19.80;95.00;;;19.55;60.47;100695.47;4960324;28;20114;-89
2023/08/09 13:05:27;;;;;;;5.85;2.65;;;19.80;94.50;;;19.62;62.00;100703.41;4953919;28;20035;-89
2023/08/09 13:07:56;;;;;;;5.90;2.83;;;19.90;95.60;;;19.65;61.29;100699.34;4953724;28;20043;-88
2023/08/09 13:10:24;;;;;;;6.93;2.70;;;19.90;95.20;;;19.66;60.97;100690.94;4969419;28;20039;-89
2023/08/09 13:12:51;;;;;;;7.60;2.75;;;19.90;94.70;;;19.69;61.86;100689.63;4956632;28;20122;-88
2023/08/09 13:15:18;;;;;;;7.60;2.90;;;20.00;95.30;;;19.68;59.70;100691.50;4976763;28;20030;-88
2023/08/09 13:17:46;;;;;;;4.93;2.60;;;19.90;93.50;;;19.69;60.11;100690.44;4972037;28;20403;-88
2023/08/09 13:20:13;;;;;;;4.72;2.25;;;19.90;93.80;;;19.72;60.42;100687.19;4977303;28;20050;-88
2023/08/09 13:22:41;;;;;;;5.60;2.45;;;20.00;93.40;;;19.72;62.36;100687.19;4952524;28;22017;-89
2023/08/09 13:25:11;;;;;;;4.55;2.25;;;20.00;95.90;;;19.71;63.74;100690.97;4971413;28;20492;-88
2023/08/09 13:27:40;;;;;;;12.10;3.65;;;20.00;97.00;;;19.69;60.15;100689.63;4973869;28;20070;-88
2023/08/09 13:30:09;;;;;;;5.82;2.70;;;19.90;93.60;;;19.73;61.68;100688.81;4952937;28;20031;-86
2023/08/09 13:32:37;;;;;;;5.63;2.42;;;20.00;95.40;;;19.76;61.26;100679.34;4960909;28;20039;-86
2023/08/09 13:35:07;;;;;;;6.00;2.50;;;20.00;94.80;;;19.79;60.93;100687.75;4961116;28;20040;-88
2023/08/09 13:37:34;;;;;;;8.20;2.67;;;20.10;94.10;;;19.79;59.77;100674.22;4937024;28;20484;-89
2023/08/09 13:40:02;;;;;;;6.82;2.80;;;20.00;93.10;;;19.84;60.20;100688.84;4968364;28;20483;-90
2023/08/09 13:42:30;;;;;;;7.00;2.47;;;20.10;93.60;;;19.87;59.21;100686.41;4953049;28;20432;-90
2023/08/09 13:44:58;;;;;;;4.32;2.33;;;20.10;92.40;;;19.87;59.91;100681.00;4952815;29;20044;-89
2023/08/09 13:47:25;;;;;;;4.57;2.05;;;20.10;93.20;;;19.91;59.95;100682.09;4954854;28;20071;-89
2023/08/09 13:49:52;;;;;;;4.55;2.30;;;20.20;93.00;;;19.92;58.46;100689.13;4970160;28;20105;-89
2023/08/09 13:52:20;;;;;;;5.00;2.05;;;20.20;91.60;;;19.96;58.82;100678.56;4955510;28;20070;-89
2023/08/09 13:54:47;;;;;;;4.75;2.13;;;20.20;91.90;;;20.00;59.90;100679.66;4976977;28;20047;-88
2023/08/09 13:57:17;;;;;;;6.13;2.38;;;20.30;93.20;;;20.00;59.19;100685.88;4972022;28;20050;-90
2023/08/09 13:59:46;;;;;;;5.15;1.90;;;20.30;92.20;;;20.00;58.45;100679.66;4980633;28;20051;-89
2023/08/09 14:02:13;;;;;;;4.97;2.08;;;20.20;91.00;;;19.96;58.89;100682.13;4972507;28;20078;-90
2023/08/09 14:04:41;;;;;;;7.18;2.70;;;20.20;91.90;;;19.93;59.06;100679.94;4958178;28;20071;-89
2023/08/09 14:07:09;;;;;;;4.82;2.28;;;20.20;92.20;;;19.93;60.17;100674.50;4956661;28;20496;-90
2023/08/09 14:09:36;;;;;;;6.88;2.10;;;20.20;93.20;;;19.94;60.53;100678.84;4954930;28;20496;-90
2023/08/09 14:12:05;;;;;;;5.93;2.50;;;20.20;93.50;;;19.97;61.70;100683.72;4970673;28;20078;-89